HAAB/ADD METAR and TAF weather

Enter ICAO airport designator
Station Type Date Time Source
HAAB METAR 2018/10/21 03:00 UTC NOAA

HAAB 210300Z 19004KT 9999 FEW026 11/08 Q1027


Station Type Date Time Source
HAAB Decoded METAR 2018/10/21 03:00 UTC NOAA

Addis Ababa, Ethiopia (HAAB) 08-59N 038-48E 2324M
Oct 20, 2018 - 11:00 PM EDT / 2018.10.21 0300 UTC
Wind: from the S (190 degrees) at 5 MPH (4 KT):0
Visibility: greater than 7 mile(s):0
Sky conditions: mostly clear
Temperature: 51 F (11 C)
Dew Point: 46 F (8 C)
Relative Humidity: 81%
Pressure (altimeter): 30.33 in. Hg (1027 hPa)
ob: HAAB 210300Z 19004KT 9999 FEW026 11/08 Q1027
cycle: 3

Station Type Date Time Source
HAAB TAF 2018/10/20 18:20 UTC NOAA

TAF HAAB 201530Z 2018/2124 09006KT 9999 BKN028 SCT080
BECMG 2006/2019 12010KT


Example: see airport list